Terminal Aerodrome Forecast
Issued by NWS

Home | Current Version | Previous Version | Graphics & Text | Print | Product List | Glossary On
Versions: 1 2 3 4 5 6 7 8 9 10 11 12 13
000
FTUS43 KICT 192340
TAFRSL
TAF
KRSL 192340Z 2000/2024 18022G30KT P6SM SKC
     FM200300 18017G22KT P6SM SKC WS020/20048KT
     FM200700 25013KT P6SM SKC
     FM200900 33013KT P6SM SKC
     FM201700 01013KT P6SM SKC=

USA.gov is the U.S. government's official web portal to all federal, state and local government web resources and services.